createdAt,value
2023-09-30T00:01:53.246Z,5.55
2023-09-30T00:04:21.301Z,7.60
2023-09-30T00:06:49.273Z,4.55
2023-09-30T00:09:18.676Z,5.05
2023-09-30T00:11:46.780Z,3.88
2023-09-30T00:14:14.782Z,4.00
2023-09-30T00:16:42.814Z,4.93
2023-09-30T00:19:11.212Z,3.88
2023-09-30T00:21:39.306Z,5.13
2023-09-30T00:24:07.527Z,4.30
2023-09-30T00:26:36.843Z,4.13
2023-09-30T00:29:05.904Z,3.70
2023-09-30T00:31:34.004Z,3.08
2023-09-30T00:34:02.041Z,5.35
2023-09-30T00:36:30.136Z,4.63
2023-09-30T00:38:58.230Z,2.85
2023-09-30T00:41:26.713Z,5.20
2023-09-30T00:43:56.206Z,3.53
2023-09-30T00:46:26.968Z,4.85
2023-09-30T00:48:55.202Z,3.42
2023-09-30T00:51:23.417Z,5.40
2023-09-30T00:53:51.590Z,4.57
2023-09-30T00:56:19.512Z,6.25
2023-09-30T00:58:47.536Z,3.30
2023-09-30T01:01:16.911Z,3.58
2023-09-30T01:03:44.950Z,3.83
2023-09-30T01:06:13.321Z,3.10
2023-09-30T01:08:41.282Z,3.63
2023-09-30T01:11:10.082Z,3.97
2023-09-30T01:13:38.762Z,3.92
2023-09-30T01:16:07.107Z,3.45
2023-09-30T01:18:36.455Z,3.50
2023-09-30T01:21:05.840Z,3.05
2023-09-30T01:23:35.151Z,4.22
2023-09-30T01:26:04.320Z,3.00
2023-09-30T01:28:32.611Z,3.53
2023-09-30T01:31:00.646Z,2.70
2023-09-30T01:33:28.617Z,2.90
2023-09-30T01:35:56.656Z,3.75
2023-09-30T01:38:24.585Z,5.43
2023-09-30T01:40:55.432Z,3.50
2023-09-30T01:43:24.523Z,3.53
2023-09-30T01:45:52.506Z,4.15
2023-09-30T01:48:21.039Z,3.85
2023-09-30T01:50:49.160Z,2.50
2023-09-30T01:53:17.357Z,3.53
2023-09-30T01:55:45.559Z,3.92
2023-09-30T01:58:15.028Z,3.72
2023-09-30T02:00:43.107Z,2.45
2023-09-30T02:03:11.156Z,3.60
2023-09-30T02:05:40.517Z,3.92
2023-09-30T02:08:08.463Z,4.60
2023-09-30T02:10:36.423Z,3.03
2023-09-30T02:13:07.141Z,3.53
2023-09-30T02:15:37.079Z,3.40
2023-09-30T02:18:05.527Z,3.33
2023-09-30T02:20:33.633Z,2.85
2023-09-30T02:23:03.614Z,6.90
2023-09-30T02:25:33.177Z,3.08
2023-09-30T02:28:01.565Z,3.33
2023-09-30T02:30:29.452Z,3.22
2023-09-30T02:32:58.776Z,2.15
2023-09-30T02:35:28.024Z,2.90
2023-09-30T02:37:55.996Z,2.45
2023-09-30T02:40:25.838Z,3.88
2023-09-30T02:42:53.899Z,3.78
2023-09-30T02:45:22.022Z,3.17
2023-09-30T02:47:50.005Z,3.33
2023-09-30T02:50:19.415Z,1.90
2023-09-30T02:52:47.439Z,1.70
2023-09-30T02:55:15.464Z,1.67
2023-09-30T02:57:47.888Z,2.72
2023-09-30T03:00:25.104Z,2.92
2023-09-30T03:02:53.926Z,6.43
2023-09-30T03:05:23.405Z,2.33
2023-09-30T03:07:51.946Z,2.90
2023-09-30T03:10:21.627Z,2.72
2023-09-30T03:12:49.855Z,3.15
2023-09-30T03:15:17.991Z,2.50
2023-09-30T03:17:46.037Z,4.63
2023-09-30T03:20:15.790Z,2.58
2023-09-30T03:22:45.106Z,1.90
2023-09-30T03:25:13.636Z,2.78
2023-09-30T03:27:42.192Z,2.40
2023-09-30T03:30:13.076Z,2.50
2023-09-30T03:32:41.132Z,2.88
2023-09-30T03:35:11.760Z,3.20
2023-09-30T03:37:39.761Z,3.03
2023-09-30T03:40:15.698Z,2.10
2023-09-30T03:42:44.934Z,3.63
2023-09-30T03:45:14.641Z,3.63
2023-09-30T03:47:43.221Z,2.08
2023-09-30T03:50:15.819Z,3.05
2023-09-30T03:52:45.970Z,2.30
2023-09-30T03:55:19.240Z,4.07
2023-09-30T03:57:50.312Z,5.50
2023-09-30T04:00:20.783Z,3.83
2023-09-30T04:02:50.690Z,2.58
2023-09-30T04:05:19.808Z,2.80
2023-09-30T04:07:48.057Z,2.08
2023-09-30T04:10:19.263Z,2.95
2023-09-30T04:12:49.623Z,2.85
2023-09-30T04:15:17.720Z,3.08
2023-09-30T04:17:45.821Z,2.50
2023-09-30T04:20:17.770Z,2.58
2023-09-30T04:22:49.518Z,3.10
2023-09-30T04:25:19.196Z,2.25
2023-09-30T04:27:49.397Z,4.10
2023-09-30T04:30:18.114Z,2.80
2023-09-30T04:32:46.149Z,3.03
2023-09-30T04:35:14.158Z,3.58
2023-09-30T04:37:42.112Z,2.72
2023-09-30T04:40:16.373Z,3.03
2023-09-30T04:42:46.165Z,3.47
2023-09-30T04:45:15.896Z,3.00
2023-09-30T04:47:45.661Z,2.58
2023-09-30T04:50:17.429Z,3.15
2023-09-30T04:52:46.471Z,3.08
2023-09-30T04:55:17.187Z,2.65
2023-09-30T04:57:47.194Z,4.07
2023-09-30T05:00:15.652Z,2.70
2023-09-30T05:02:46.143Z,3.00
2023-09-30T05:05:14.321Z,3.88
2023-09-30T05:07:42.306Z,2.65
2023-09-30T05:10:12.853Z,2.55
2023-09-30T05:12:42.044Z,3.05
2023-09-30T05:15:12.141Z,4.35
2023-09-30T05:17:40.205Z,3.08
2023-09-30T05:20:08.708Z,2.47
2023-09-30T05:22:36.644Z,3.95
2023-09-30T05:25:04.704Z,2.72
2023-09-30T05:27:33.642Z,2.38
2023-09-30T05:30:01.770Z,2.83
2023-09-30T05:32:31.852Z,3.03
2023-09-30T05:34:59.972Z,2.88
2023-09-30T05:37:29.177Z,4.63
2023-09-30T05:39:57.120Z,3.25
2023-09-30T05:42:25.052Z,2.97
2023-09-30T05:44:54.326Z,3.95
2023-09-30T05:47:22.358Z,2.75
2023-09-30T05:49:51.642Z,3.28
2023-09-30T05:52:20.363Z,2.42
2023-09-30T05:54:50.124Z,3.47
2023-09-30T05:57:18.240Z,2.20
2023-09-30T05:59:47.174Z,3.58
2023-09-30T06:02:15.232Z,3.92
2023-09-30T06:04:43.340Z,3.92
2023-09-30T06:07:12.814Z,3.78
2023-09-30T06:09:40.835Z,6.43
2023-09-30T06:12:08.808Z,4.53
2023-09-30T06:14:36.847Z,5.10
2023-09-30T06:17:04.766Z,5.03
2023-09-30T06:19:32.829Z,4.22
2023-09-30T06:22:01.148Z,5.15
2023-09-30T06:24:30.435Z,4.82
2023-09-30T06:26:58.378Z,4.53
2023-09-30T06:29:27.939Z,4.70
2023-09-30T06:31:55.873Z,5.05
2023-09-30T06:34:23.818Z,4.68
2023-09-30T06:36:51.819Z,2.65
2023-09-30T06:39:20.392Z,3.17
2023-09-30T06:41:49.923Z,4.57
2023-09-30T06:44:17.870Z,4.93
2023-09-30T06:46:45.892Z,5.20
2023-09-30T06:49:13.872Z,4.80
2023-09-30T06:51:42.016Z,6.80
2023-09-30T06:54:10.023Z,4.25
2023-09-30T06:56:37.918Z,3.83
2023-09-30T06:59:07.582Z,8.20
2023-09-30T07:01:35.552Z,6.00
2023-09-30T07:04:03.701Z,5.63
2023-09-30T07:06:31.749Z,7.90
2023-09-30T07:08:59.830Z,5.78
2023-09-30T07:11:32.112Z,5.28
2023-09-30T07:14:00.052Z,9.82
2023-09-30T07:16:29.374Z,8.20
2023-09-30T07:18:57.571Z,10.70
2023-09-30T07:21:26.035Z,4.07
2023-09-30T07:23:54.104Z,6.68
2023-09-30T07:26:25.255Z,7.22
2023-09-30T07:28:55.276Z,5.68
2023-09-30T07:31:24.586Z,4.45
2023-09-30T07:33:54.520Z,4.85
2023-09-30T07:36:22.702Z,3.78
2023-09-30T07:38:50.754Z,5.68
2023-09-30T07:41:18.817Z,7.47
2023-09-30T07:43:46.792Z,4.43
2023-09-30T07:46:16.687Z,5.43
2023-09-30T07:48:45.100Z,3.78
2023-09-30T07:51:16.360Z,7.15
2023-09-30T07:53:44.467Z,8.52
2023-09-30T07:56:12.397Z,9.15
2023-09-30T07:58:40.305Z,7.35
2023-09-30T08:01:09.777Z,13.52
2023-09-30T08:03:37.886Z,7.93
2023-09-30T08:06:06.039Z,12.38
2023-09-30T08:08:35.337Z,12.23
2023-09-30T08:11:03.304Z,12.20
2023-09-30T08:13:31.266Z,10.45
2023-09-30T08:15:59.270Z,11.00
2023-09-30T08:18:27.320Z,12.90
2023-09-30T08:20:55.240Z,9.52
2023-09-30T08:23:23.246Z,13.57
2023-09-30T08:25:52.535Z,12.38
2023-09-30T08:28:20.528Z,8.85
2023-09-30T08:30:48.663Z,12.38
2023-09-30T08:33:16.731Z,10.30
2023-09-30T08:35:44.755Z,10.52
2023-09-30T08:38:12.671Z,10.88
2023-09-30T08:40:41.391Z,11.00
2023-09-30T08:43:11.367Z,13.05
2023-09-30T08:45:39.450Z,10.70
2023-09-30T08:48:07.808Z,13.30
2023-09-30T08:50:35.762Z,10.48
2023-09-30T08:53:04.948Z,16.42
2023-09-30T08:55:33.332Z,16.67
2023-09-30T08:58:01.980Z,10.70
2023-09-30T09:00:31.358Z,18.00
2023-09-30T09:02:59.569Z,18.27
2023-09-30T09:05:27.665Z,16.10
2023-09-30T09:07:55.612Z,13.82
2023-09-30T09:10:23.480Z,16.25
2023-09-30T09:12:56.622Z,16.15
2023-09-30T09:15:25.757Z,16.70
2023-09-30T09:17:55.647Z,17.02
2023-09-30T09:20:24.397Z,13.63
2023-09-30T09:22:55.228Z,13.18
2023-09-30T09:25:24.240Z,21.95
2023-09-30T09:27:52.498Z,22.15
2023-09-30T09:30:20.979Z,16.55
2023-09-30T09:32:56.742Z,12.18
2023-09-30T09:35:26.518Z,19.13
2023-09-30T09:37:58.260Z,13.15
2023-09-30T09:40:27.018Z,16.02
2023-09-30T09:42:56.074Z,16.95
2023-09-30T09:45:24.968Z,18.80
2023-09-30T09:47:53.906Z,16.20
2023-09-30T09:50:23.783Z,18.17
2023-09-30T09:52:52.201Z,17.83
2023-09-30T09:55:20.420Z,11.95
2023-09-30T09:57:48.667Z,16.85
2023-09-30T10:00:17.453Z,15.55
2023-09-30T10:02:45.482Z,19.92
2023-09-30T10:05:13.585Z,17.85
2023-09-30T10:07:44.414Z,29.02
2023-09-30T10:10:14.569Z,15.98
2023-09-30T10:12:42.601Z,14.95
2023-09-30T10:15:29.296Z,20.60
2023-09-30T10:18:02.059Z,13.23
2023-09-30T10:20:30.200Z,20.20
2023-09-30T10:23:16.921Z,13.85
2023-09-30T10:25:48.276Z,13.75
2023-09-30T10:28:35.192Z,11.05
2023-09-30T10:31:09.966Z,11.05
2023-09-30T10:33:38.004Z,12.93
2023-09-30T10:36:06.035Z,18.25
2023-09-30T10:38:41.372Z,10.90
2023-09-30T10:41:11.047Z,16.17
2023-09-30T10:43:39.164Z,19.23
2023-09-30T10:46:08.466Z,11.57
2023-09-30T10:48:40.352Z,15.85
2023-09-30T10:51:15.565Z,15.05
2023-09-30T10:53:44.055Z,12.27
2023-09-30T10:56:13.392Z,10.63
2023-09-30T10:58:42.077Z,13.85
2023-09-30T11:01:10.105Z,8.93
2023-09-30T11:03:38.372Z,8.05
2023-09-30T11:08:37.309Z,13.50
2023-09-30T11:11:05.888Z,10.05
2023-09-30T11:13:36.674Z,11.35
2023-09-30T11:16:05.669Z,9.25
2023-09-30T11:18:33.787Z,8.82
2023-09-30T11:21:08.464Z,11.50
2023-09-30T11:23:36.537Z,10.25
2023-09-30T11:26:04.706Z,14.75
2023-09-30T11:28:41.076Z,12.15
2023-09-30T11:31:11.670Z,11.43
2023-09-30T11:33:49.462Z,8.63
2023-09-30T11:36:17.393Z,6.90
2023-09-30T11:38:46.688Z,6.70
2023-09-30T11:41:14.603Z,8.68
2023-09-30T11:44:00.602Z,8.90
2023-09-30T11:46:29.472Z,11.30
2023-09-30T11:49:01.906Z,7.97
2023-09-30T11:51:29.890Z,9.40
2023-09-30T11:53:58.845Z,11.48
2023-09-30T11:56:30.421Z,13.50
2023-09-30T11:59:00.158Z,11.63
2023-09-30T12:01:31.983Z,10.70
2023-09-30T12:04:00.789Z,9.65
2023-09-30T12:06:29.086Z,5.85
2023-09-30T12:08:57.811Z,9.35
2023-09-30T12:11:26.996Z,9.20
2023-09-30T12:13:55.050Z,7.40
2023-09-30T12:16:25.267Z,5.00
2023-09-30T12:18:53.310Z,6.38
2023-09-30T12:21:21.918Z,8.05
2023-09-30T12:23:50.087Z,7.10
2023-09-30T12:26:21.112Z,8.15
2023-09-30T12:28:49.305Z,8.07
2023-09-30T12:31:18.542Z,5.78
2023-09-30T12:33:51.580Z,6.10
2023-09-30T12:36:19.830Z,5.63
2023-09-30T12:38:48.328Z,5.20
2023-09-30T12:41:16.442Z,7.88
2023-09-30T12:43:44.437Z,7.15
2023-09-30T12:46:14.498Z,5.75
2023-09-30T12:48:43.050Z,5.93
2023-09-30T12:51:12.508Z,5.97
2023-09-30T12:53:40.442Z,4.78
2023-09-30T12:56:08.344Z,7.13
2023-09-30T12:58:36.515Z,5.97
2023-09-30T13:01:16.020Z,5.03
2023-09-30T13:03:48.533Z,7.30
2023-09-30T13:06:18.197Z,4.63
2023-09-30T13:08:46.234Z,5.45
2023-09-30T13:11:14.461Z,4.53
2023-09-30T13:13:42.426Z,4.35
2023-09-30T13:16:12.633Z,4.70
2023-09-30T13:18:40.922Z,5.30
2023-09-30T13:21:08.886Z,5.80
2023-09-30T13:23:38.138Z,5.22
2023-09-30T13:26:06.079Z,5.65
2023-09-30T13:28:34.008Z,4.82
2023-09-30T13:31:01.976Z,5.68
2023-09-30T13:33:30.012Z,14.20
2023-09-30T13:35:58.051Z,7.45
2023-09-30T13:38:26.009Z,6.43
2023-09-30T13:40:55.475Z,7.68
2023-09-30T13:43:23.355Z,9.25
2023-09-30T13:45:51.769Z,8.63
2023-09-30T13:48:19.920Z,8.93
2023-09-30T13:50:47.920Z,19.42
2023-09-30T13:53:16.494Z,7.22
2023-09-30T13:55:44.450Z,11.27
2023-09-30T13:58:13.994Z,7.10
2023-09-30T14:00:42.524Z,10.65
2023-09-30T14:03:10.743Z,11.10
2023-09-30T14:05:39.693Z,10.35
2023-09-30T14:08:08.747Z,13.73
2023-09-30T14:10:37.199Z,15.48
2023-09-30T14:13:05.549Z,12.77
2023-09-30T14:15:35.000Z,15.07
2023-09-30T14:18:03.286Z,11.57
2023-09-30T14:20:31.366Z,14.93
2023-09-30T14:22:59.337Z,9.00
2023-09-30T14:25:27.540Z,8.63
2023-09-30T14:27:55.607Z,12.57
2023-09-30T14:30:23.552Z,8.27
2023-09-30T14:32:52.956Z,7.85
2023-09-30T14:35:20.991Z,6.85
2023-09-30T14:37:48.929Z,10.07
2023-09-30T14:40:17.144Z,7.93
2023-09-30T14:42:45.236Z,17.48
2023-09-30T14:45:13.112Z,11.85
2023-09-30T14:47:41.075Z,15.30
2023-09-30T14:50:11.519Z,10.75
2023-09-30T14:52:39.511Z,11.65
2023-09-30T14:55:07.803Z,10.07
2023-09-30T14:57:35.887Z,11.00
2023-09-30T15:00:04.686Z,12.18
2023-09-30T15:02:32.689Z,10.48
2023-09-30T15:05:00.667Z,14.48
2023-09-30T15:07:30.089Z,9.95
2023-09-30T15:09:58.112Z,12.18
2023-09-30T15:12:26.819Z,16.42
2023-09-30T15:14:54.956Z,10.15
2023-09-30T15:17:22.911Z,10.32
2023-09-30T15:19:52.089Z,11.25
2023-09-30T15:22:20.078Z,9.73
2023-09-30T15:24:50.528Z,9.50
2023-09-30T15:27:19.329Z,10.18
2023-09-30T15:29:47.328Z,12.45
2023-09-30T15:32:15.273Z,12.48
2023-09-30T15:34:43.325Z,14.30
2023-09-30T15:37:11.310Z,8.57
2023-09-30T15:39:39.676Z,10.77
2023-09-30T15:42:09.984Z,10.90
2023-09-30T15:44:37.989Z,9.63
2023-09-30T15:47:07.049Z,9.15
2023-09-30T15:49:35.112Z,11.55
2023-09-30T15:52:03.138Z,8.43
2023-09-30T15:54:31.298Z,9.10
2023-09-30T15:57:00.175Z,20.80
2023-09-30T15:59:30.150Z,10.00
2023-09-30T16:01:58.226Z,10.95
2023-09-30T16:04:26.397Z,12.45
2023-09-30T16:06:54.414Z,8.32
2023-09-30T16:09:23.038Z,9.13
2023-09-30T16:11:50.995Z,7.22
2023-09-30T16:14:19.009Z,10.88
2023-09-30T16:16:48.299Z,9.13
2023-09-30T16:19:16.807Z,10.30
2023-09-30T16:21:44.699Z,12.98
2023-09-30T16:24:12.712Z,12.00
2023-09-30T16:26:40.609Z,12.95
2023-09-30T16:29:08.533Z,10.43
2023-09-30T16:31:36.949Z,20.73
2023-09-30T16:34:06.491Z,11.85
2023-09-30T16:36:34.541Z,13.48
2023-09-30T16:39:02.500Z,11.48
2023-09-30T16:41:30.414Z,18.17
2023-09-30T16:43:58.627Z,17.58
2023-09-30T16:46:26.675Z,11.95
2023-09-30T16:48:54.653Z,11.98
2023-09-30T16:51:24.066Z,11.98
2023-09-30T16:53:51.973Z,14.65
2023-09-30T16:56:20.028Z,10.45
2023-09-30T16:58:47.974Z,12.23
2023-09-30T17:01:16.025Z,10.10
2023-09-30T17:03:44.041Z,12.75
2023-09-30T17:06:12.289Z,10.60
2023-09-30T17:08:41.581Z,8.77
2023-09-30T17:11:11.380Z,10.65
2023-09-30T17:13:39.346Z,12.75
2023-09-30T17:16:07.548Z,13.00
2023-09-30T17:18:35.941Z,10.57
2023-09-30T17:21:04.481Z,10.02
2023-09-30T17:23:32.350Z,12.15
2023-09-30T17:26:04.860Z,9.05
2023-09-30T17:28:32.777Z,9.23
2023-09-30T17:31:03.471Z,7.68
2023-09-30T17:33:31.459Z,11.32
2023-09-30T17:36:00.624Z,10.48
2023-09-30T17:38:28.580Z,9.60
2023-09-30T17:40:57.003Z,8.65
2023-09-30T17:43:29.375Z,10.60
2023-09-30T17:45:57.636Z,11.20
2023-09-30T17:48:25.672Z,8.35
2023-09-30T17:50:53.636Z,8.45
2023-09-30T17:53:21.660Z,10.02
2023-09-30T17:55:50.070Z,10.55
2023-09-30T17:58:18.129Z,9.68
2023-09-30T18:00:50.760Z,8.70
2023-09-30T18:03:18.743Z,8.38
2023-09-30T18:05:46.712Z,10.18
2023-09-30T18:08:14.761Z,5.45
2023-09-30T18:10:44.189Z,10.85
2023-09-30T18:13:12.193Z,7.78
2023-09-30T18:15:40.160Z,6.75
2023-09-30T18:18:12.412Z,9.85
2023-09-30T18:20:41.004Z,7.18
2023-09-30T18:23:09.000Z,8.27
2023-09-30T18:25:37.513Z,22.58
2023-09-30T18:28:06.037Z,10.43
2023-09-30T18:30:34.417Z,7.25
2023-09-30T18:33:04.026Z,5.60
2023-09-30T18:35:33.473Z,9.10
2023-09-30T18:38:01.547Z,4.63
2023-09-30T18:40:30.094Z,6.53
2023-09-30T18:42:58.317Z,6.15
2023-09-30T18:45:26.380Z,6.60
2023-09-30T18:47:55.441Z,6.13
2023-09-30T18:50:23.525Z,4.90
2023-09-30T18:52:52.793Z,4.85
2023-09-30T18:55:20.765Z,7.05
2023-09-30T18:57:48.782Z,6.15
2023-09-30T19:00:18.480Z,5.25
2023-09-30T19:02:46.698Z,4.05
2023-09-30T19:05:14.891Z,4.57
2023-09-30T19:07:42.840Z,5.43
2023-09-30T19:10:12.331Z,3.92
2023-09-30T19:12:40.801Z,5.38
2023-09-30T19:15:10.741Z,6.07
2023-09-30T19:17:38.781Z,5.20
2023-09-30T19:20:07.909Z,4.75
2023-09-30T19:22:35.815Z,4.15
2023-09-30T19:25:04.489Z,5.47
2023-09-30T19:27:33.744Z,7.50
2023-09-30T19:30:01.792Z,5.82
2023-09-30T19:32:29.675Z,6.72
2023-09-30T19:34:57.671Z,7.20
2023-09-30T19:37:25.600Z,4.65
2023-09-30T19:39:53.518Z,5.45
2023-09-30T19:42:21.737Z,6.28
2023-09-30T19:44:51.074Z,6.90
2023-09-30T19:47:18.969Z,6.70
2023-09-30T19:49:48.008Z,5.18
2023-09-30T19:52:16.004Z,4.80
2023-09-30T19:54:44.087Z,4.20
2023-09-30T19:57:12.127Z,5.85
2023-09-30T19:59:40.783Z,5.25
2023-09-30T20:02:10.279Z,6.63
2023-09-30T20:04:39.078Z,4.70
2023-09-30T20:07:07.589Z,9.27
2023-09-30T20:09:36.306Z,10.35
2023-09-30T20:12:06.143Z,7.30
2023-09-30T20:14:35.143Z,9.35
2023-09-30T20:17:03.689Z,7.80
2023-09-30T20:19:33.079Z,8.05
2023-09-30T20:22:02.338Z,8.65
2023-09-30T20:24:31.170Z,7.78
2023-09-30T20:26:59.110Z,9.85
2023-09-30T20:29:27.733Z,9.73
2023-09-30T20:31:55.710Z,6.72
2023-09-30T20:34:23.778Z,6.82
2023-09-30T20:36:53.854Z,5.53
2023-09-30T20:39:22.368Z,8.48
2023-09-30T20:41:51.478Z,8.43
2023-09-30T20:44:19.865Z,8.15
2023-09-30T20:46:48.626Z,7.38
2023-09-30T20:49:19.183Z,6.40
2023-09-30T20:51:47.704Z,7.65
2023-09-30T20:54:17.132Z,6.72
2023-09-30T20:56:45.575Z,6.53
2023-09-30T20:59:13.991Z,6.88
2023-09-30T21:01:42.440Z,8.38
2023-09-30T21:04:10.465Z,7.47
2023-09-30T21:06:39.077Z,7.95
2023-09-30T21:09:07.273Z,6.95
2023-09-30T21:11:37.268Z,5.47
2023-09-30T21:14:05.216Z,5.13
2023-09-30T21:16:35.498Z,6.45
2023-09-30T21:19:03.642Z,7.75
2023-09-30T21:21:31.958Z,11.30
2023-09-30T21:23:59.903Z,5.38
2023-09-30T21:26:27.852Z,7.43
2023-09-30T21:28:57.357Z,6.93
2023-09-30T21:31:25.779Z,7.10
2023-09-30T21:33:53.999Z,9.25
2023-09-30T21:36:23.384Z,8.93
2023-09-30T21:38:51.291Z,8.75
2023-09-30T21:41:20.449Z,5.07
2023-09-30T21:43:48.674Z,8.23
2023-09-30T21:46:18.132Z,7.57
2023-09-30T21:48:46.720Z,6.75
2023-09-30T21:51:14.814Z,5.90
2023-09-30T21:53:42.753Z,6.47
2023-09-30T21:56:10.661Z,10.63
2023-09-30T21:58:38.546Z,6.15
2023-09-30T22:01:10.757Z,6.10
2023-09-30T22:03:40.320Z,5.25
2023-09-30T22:06:08.414Z,4.65
2023-09-30T22:08:37.653Z,5.43
2023-09-30T22:11:05.626Z,4.53
2023-09-30T22:13:33.634Z,7.95
2023-09-30T22:16:01.720Z,4.28
2023-09-30T22:18:29.803Z,4.25
2023-09-30T22:21:00.067Z,4.85
2023-09-30T22:23:28.430Z,6.50
2023-09-30T22:25:56.385Z,7.65
2023-09-30T22:28:24.455Z,6.30
2023-09-30T22:30:55.132Z,8.90
2023-09-30T22:33:23.203Z,5.70
2023-09-30T22:35:52.335Z,5.78
2023-09-30T22:38:22.109Z,5.47
2023-09-30T22:40:50.075Z,5.53
2023-09-30T22:43:21.157Z,4.65
2023-09-30T22:45:49.249Z,4.32
2023-09-30T22:48:17.258Z,5.05
2023-09-30T22:50:45.246Z,4.78
2023-09-30T22:53:13.113Z,3.92
2023-09-30T22:55:43.073Z,5.28
2023-09-30T22:58:11.052Z,5.13
2023-09-30T23:00:39.419Z,4.88
2023-09-30T23:03:08.594Z,7.50
2023-09-30T23:05:36.590Z,5.90
2023-09-30T23:08:05.388Z,4.57
2023-09-30T23:10:33.322Z,5.13
2023-09-30T23:13:02.693Z,5.75
2023-09-30T23:15:30.780Z,6.68
2023-09-30T23:17:58.846Z,5.10
2023-09-30T23:20:27.701Z,4.95
2023-09-30T23:22:55.913Z,4.78
2023-09-30T23:25:28.027Z,4.28
2023-09-30T23:27:56.587Z,5.60
2023-09-30T23:30:27.212Z,5.97
2023-09-30T23:32:58.180Z,4.78
2023-09-30T23:35:28.694Z,4.72
2023-09-30T23:38:03.048Z,4.80
2023-09-30T23:40:33.907Z,4.40
2023-09-30T23:43:03.062Z,6.05
2023-09-30T23:45:35.675Z,5.45
2023-09-30T23:48:05.183Z,5.07
2023-09-30T23:50:35.350Z,4.45
2023-09-30T23:53:05.990Z,5.22
2023-09-30T23:55:37.765Z,5.82
2023-09-30T23:58:07.674Z,4.80
